DFOO/BOY METAR and TAF weather

Enter ICAO airport designator
Station Type Date Time Source
DFOO METAR 2021/08/05 01:00 UTC NOAA

DFOO 050100Z 24003KT 9999 FEW016 23/22 Q1016


Station Type Date Time Source
DFOO Decoded METAR 2021/08/05 01:00 UTC NOAA

Bobo-Dioulasso, Burkina Faso (DFOO) 11-10N 004-19W 460M
Aug 04, 2021 - 09:00 PM EDT / 2021.08.05 0100 UTC
Wind: from the WSW (240 degrees) at 3 MPH (3 KT):0
Visibility: greater than 7 mile(s):0
Sky conditions: mostly clear
Temperature: 73 F (23 C)
Dew Point: 71 F (22 C)
Relative Humidity: 94%
Pressure (altimeter): 30.00 in. Hg (1016 hPa)
ob: DFOO 050100Z 24003KT 9999 FEW016 23/22 Q1016
cycle: 1

Station Type Date Time Source
DFOO TAF 2021/08/05 00:36 UTC NOAA

TAF DFOO 042300Z 0500/0524 20008KT 9999 SCT016
TEMPO 0517/0524 4000 TSRA SCT016 SCT030CB

Example: see airport list